Main page
METAR-TAF:

METAR-TAF

Airports :

Federico García Lorca Airport

Granada, Spain

latitude: 37-11N, longitude: 003-47W, elevation: 567 m

Current weather observation

The report was made 13 minutes ago, at 18:00 UTC
Wind 2 kt from variable directions
Temperature 11°C
Humidity 66%
Pressure 1025 hPa
Visibility 10 km or more
Scattered clouds at a height of 3500 ft

METAR: LEGR 271800Z VRB02KT 9999 SCT035 11/05 Q1025

Time: 19:13 (18:13 UTC)

Forecast

The report was made 4 hours and 13 minutes ago, at 14:00 UTC
Forecast valid from 27 at 15 UTC to 28 at 15 UTC
Wind 4 kt from the West
Visibility 10 km or more
Few clouds at a height of 4000 ft
Scattered clouds at a height of 10000 ft
Probability 40% :
Temporary
from 28 at 03 UTC to 28 at 09 UTC
Visibility: 3000 m
mist
Probability 30% :
Temporary
from 28 at 03 UTC to 28 at 10 UTC
Visibility: 0400 m
at a height of 200 ft
fog

TAF: LEGR 271400Z 2715/2815 27004KT 9999 FEW040 SCT100 TX15/2815Z TN00/2804Z PROB40 TEMPO 2803/2809 3000 BR PROB30 TEMPO 2803/2810 0400 FG VV002

Weather observations and forecasts of more than 4000 airports (METAR and TAF reports).

The available stations are represented by yellow and red dots on the map.

Hover mouse over dot to see the name of the station.

Then click to see weather observations and forecasts.

To change the map : click on the green buttons with a black cross to zoom in, on the green button with a dash to zoom out, or on the green arrows for adjacent maps.


METAR-TAF: